Time;durP1;ratioP1;P1;durP2;ratioP2;P2;SDS_P1;SDS_P2;PMS_P1;PMS_P2;Temp;Humidity;BMP_temperature;BMP_pressure;BME280_temperature;BME280_humidity;BME280_pressure;Samples;Min_cycle;Max_cycle;Signal;HPM_P1;HPM_P2
2022/05/31 00:01:38;;;;;;;5.55;5.05;;;;;;;;;;5062570;28;20141;-83
2022/05/31 00:04:04;;;;;;;7.78;5.22;;;;;;;;;;5031480;28;20084;-82
2022/05/31 00:06:30;;;;;;;7.00;4.70;;;;;;;;;;5033463;28;20116;-82
2022/05/31 00:08:56;;;;;;;5.38;4.30;;;;;;;;;;5036995;28;20041;-83
2022/05/31 00:11:22;;;;;;;5.72;4.72;;;;;;;;;;5037268;28;20103;-82
2022/05/31 00:13:48;;;;;;;6.40;4.80;;;;;;;;;;5033057;28;20049;-82
2022/05/31 00:16:14;;;;;;;6.10;5.25;;;;;;;;;;5028583;28;20051;-82
2022/05/31 00:18:40;;;;;;;5.10;4.60;;;;;;;;;;5043559;28;20148;-82
2022/05/31 00:21:07;;;;;;;6.10;5.03;;;;;;;;;;5030083;28;20072;-83
2022/05/31 00:23:33;;;;;;;5.35;4.85;;;;;;;;;;5033459;28;20067;-83
2022/05/31 00:25:59;;;;;;;6.43;5.15;;;;;;;;;;5047655;28;20508;-83
2022/05/31 00:28:26;;;;;;;6.32;5.43;;;;;;;;;;5054643;28;20040;-83
2022/05/31 00:30:52;;;;;;;7.57;4.65;;;;;;;;;;5045213;28;20048;-82
2022/05/31 00:33:18;;;;;;;6.72;5.13;;;;;;;;;;5036529;28;20068;-83
2022/05/31 00:35:48;;;;;;;6.65;5.22;;;;;;;;;;5048654;28;20485;-82
2022/05/31 00:38:16;;;;;;;6.05;4.82;;;;;;;;;;5069955;28;20040;-82
2022/05/31 00:40:42;;;;;;;7.35;5.10;;;;;;;;;;5069703;28;20044;-82
2022/05/31 00:43:10;;;;;;;6.45;5.30;;;;;;;;;;5071269;28;20056;-83
2022/05/31 00:45:42;;;;;;;6.28;5.32;;;;;;;;;;5071942;28;20052;-82
2022/05/31 00:48:17;;;;;;;7.85;5.38;;;;;;;;;;5057466;28;20048;-82
2022/05/31 00:50:46;;;;;;;6.80;5.15;;;;;;;;;;5045710;28;20110;-82
2022/05/31 00:53:16;;;;;;;7.90;5.65;;;;;;;;;;5050925;28;20060;-83
2022/05/31 00:55:45;;;;;;;6.35;5.75;;;;;;;;;;5062575;28;20041;-83
2022/05/31 00:58:24;;;;;;;7.03;5.50;;;;;;;;;;5072363;28;20040;-83
2022/05/31 01:00:52;;;;;;;6.20;5.10;;;;;;;;;;5070114;28;20056;-83
2022/05/31 01:03:21;;;;;;;7.25;5.75;;;;;;;;;;5072700;28;20545;-83
2022/05/31 01:05:47;;;;;;;7.88;5.60;;;;;;;;;;5056102;28;20041;-82
2022/05/31 01:08:13;;;;;;;7.63;5.65;;;;;;;;;;5052050;28;20045;-83
2022/05/31 01:10:43;;;;;;;6.03;5.43;;;;;;;;;;5062398;28;20124;-82
2022/05/31 01:13:11;;;;;;;6.43;5.40;;;;;;;;;;5070674;28;20076;-82
2022/05/31 01:15:37;;;;;;;6.18;5.57;;;;;;;;;;5070657;28;20489;-82
2022/05/31 01:18:03;;;;;;;6.38;5.63;;;;;;;;;;5065624;28;20052;-83
2022/05/31 01:20:30;;;;;;;8.52;5.63;;;;;;;;;;5061187;28;20036;-82
2022/05/31 01:22:57;;;;;;;6.40;5.57;;;;;;;;;;5071857;28;20047;-82
2022/05/31 01:25:23;;;;;;;6.10;5.35;;;;;;;;;;5069366;28;20524;-82
2022/05/31 01:28:03;;;;;;;6.53;5.53;;;;;;;;;;5063513;28;20090;-82
2022/05/31 01:30:30;;;;;;;5.97;5.40;;;;;;;;;;5060024;28;20053;-82
2022/05/31 01:32:59;;;;;;;6.53;5.45;;;;;;;;;;5050257;28;20044;-82
2022/05/31 01:35:28;;;;;;;7.43;5.55;;;;;;;;;;5053346;28;20049;-82
2022/05/31 01:38:00;;;;;;;7.13;5.43;;;;;;;;;;5051496;28;20092;-82
2022/05/31 01:40:38;;;;;;;6.72;5.60;;;;;;;;;;5061124;28;20040;-83
2022/05/31 01:43:04;;;;;;;7.80;5.70;;;;;;;;;;5069968;28;20133;-82
2022/05/31 01:45:54;;;;;;;6.85;5.93;;;;;;;;;;5064407;28;20091;-82
2022/05/31 01:48:20;;;;;;;6.70;6.03;;;;;;;;;;5065226;28;20262;-82
2022/05/31 01:50:46;;;;;;;7.70;6.32;;;;;;;;;;5069302;28;20049;-82
2022/05/31 01:53:14;;;;;;;8.13;6.90;;;;;;;;;;5069800;28;20082;-82
2022/05/31 01:55:43;;;;;;;11.20;7.65;;;;;;;;;;5069578;28;20382;-82
2022/05/31 01:58:13;;;;;;;8.32;7.40;;;;;;;;;;5059385;28;20052;-82
2022/05/31 02:00:40;;;;;;;8.90;6.70;;;;;;;;;;5068049;28;20041;-82
2022/05/31 02:03:07;;;;;;;7.43;6.72;;;;;;;;;;5070998;28;20048;-82
2022/05/31 02:05:33;;;;;;;8.90;6.85;;;;;;;;;;5066724;28;20097;-82
2022/05/31 02:08:00;;;;;;;10.18;7.00;;;;;;;;;;5069680;28;20060;-82
2022/05/31 02:10:27;;;;;;;7.50;6.70;;;;;;;;;;5068769;28;20294;-83
2022/05/31 02:12:53;;;;;;;8.15;6.63;;;;;;;;;;5058647;28;20469;-82
2022/05/31 02:15:20;;;;;;;7.68;6.88;;;;;;;;;;5061616;28;20041;-82
2022/05/31 02:17:47;;;;;;;8.68;7.20;;;;;;;;;;5069505;28;20409;-82
2022/05/31 02:20:13;;;;;;;8.15;6.90;;;;;;;;;;5069196;28;20052;-82
2022/05/31 02:22:39;;;;;;;8.20;6.88;;;;;;;;;;5069798;28;20086;-82
2022/05/31 02:25:06;;;;;;;7.50;6.60;;;;;;;;;;5049710;28;20072;-82
2022/05/31 02:27:32;;;;;;;7.45;6.47;;;;;;;;;;5054539;28;20630;-82
2022/05/31 02:29:58;;;;;;;7.18;6.40;;;;;;;;;;5068760;28;20059;-83
2022/05/31 02:32:24;;;;;;;7.95;6.60;;;;;;;;;;5069454;28;20056;-82
2022/05/31 02:34:51;;;;;;;7.30;6.60;;;;;;;;;;5063450;28;20406;-82
2022/05/31 02:37:18;;;;;;;7.85;6.82;;;;;;;;;;5050841;28;20040;-82
2022/05/31 02:39:44;;;;;;;7.35;6.63;;;;;;;;;;5070690;28;20037;-82
2022/05/31 02:42:11;;;;;;;8.90;6.68;;;;;;;;;;5063535;28;20048;-82
2022/05/31 02:44:37;;;;;;;7.32;6.28;;;;;;;;;;5068924;28;20049;-82
2022/05/31 02:47:04;;;;;;;8.13;6.38;;;;;;;;;;5069332;28;20072;-82
2022/05/31 02:49:30;;;;;;;7.88;6.30;;;;;;;;;;5077139;28;20059;-82
2022/05/31 02:51:58;;;;;;;7.32;6.28;;;;;;;;;;5069265;28;20056;-82
2022/05/31 02:54:24;;;;;;;7.32;6.32;;;;;;;;;;5064117;28;20044;-82
2022/05/31 02:56:50;;;;;;;7.55;6.28;;;;;;;;;;5063330;28;20056;-82
2022/05/31 02:59:16;;;;;;;7.88;6.35;;;;;;;;;;5060267;28;20400;-83
2022/05/31 03:01:42;;;;;;;8.85;6.38;;;;;;;;;;5068815;28;20044;-82
2022/05/31 03:04:09;;;;;;;9.27;6.05;;;;;;;;;;5067892;28;20049;-82
2022/05/31 03:06:36;;;;;;;9.05;6.55;;;;;;;;;;5051352;28;20330;-82
2022/05/31 03:09:02;;;;;;;6.50;5.90;;;;;;;;;;5050027;28;20053;-82
2022/05/31 03:11:30;;;;;;;8.68;6.78;;;;;;;;;;5048541;28;20036;-83
2022/05/31 03:14:17;;;;;;;8.05;6.22;;;;;;;;;;5056031;28;20128;-82
2022/05/31 03:16:43;;;;;;;;;;;;;;;;;;5069431;28;20048;-82
2022/05/31 03:19:11;;;;;;;8.60;6.20;;;;;;;;;;5060125;28;19978;-82
2022/05/31 03:21:43;;;;;;;7.85;6.00;;;;;;;;;;5049914;28;20586;-82
2022/05/31 03:24:12;;;;;;;7.53;6.30;;;;;;;;;;5056449;28;20438;-82
2022/05/31 03:26:40;;;;;;;10.70;6.00;;;;;;;;;;5060346;28;20102;-82
2022/05/31 03:29:06;;;;;;;12.73;6.45;;;;;;;;;;5067467;28;20056;-82
2022/05/31 03:31:32;;;;;;;15.95;6.30;;;;;;;;;;5068691;28;20102;-82
2022/05/31 03:33:59;;;;;;;9.95;6.80;;;;;;;;;;5066688;28;20052;-82
2022/05/31 03:36:25;;;;;;;9.60;6.10;;;;;;;;;;5051454;28;20505;-82
2022/05/31 03:38:51;;;;;;;10.77;5.85;;;;;;;;;;5066309;28;20049;-82
2022/05/31 03:41:17;;;;;;;7.57;5.63;;;;;;;;;;5062071;28;20033;-82
2022/05/31 03:43:43;;;;;;;9.30;5.85;;;;;;;;;;5059937;28;20119;-83
2022/05/31 03:46:13;;;;;;;7.80;5.68;;;;;;;;;;5069146;28;20052;-82
2022/05/31 03:48:39;;;;;;;8.10;5.65;;;;;;;;;;5049480;28;20048;-82
2022/05/31 03:51:06;;;;;;;7.45;5.60;;;;;;;;;;5068010;28;20121;-82
2022/05/31 03:53:32;;;;;;;6.47;5.70;;;;;;;;;;5069077;28;20095;-82
2022/05/31 03:56:01;;;;;;;7.97;6.30;;;;;;;;;;5062032;28;20499;-82
2022/05/31 03:58:27;;;;;;;7.93;5.93;;;;;;;;;;5049901;28;20048;-82
2022/05/31 04:00:53;;;;;;;8.68;6.22;;;;;;;;;;5069599;28;20044;-82
2022/05/31 04:03:19;;;;;;;6.75;5.63;;;;;;;;;;5067223;28;20051;-82
2022/05/31 04:05:45;;;;;;;6.00;5.30;;;;;;;;;;5068893;28;20484;-82
2022/05/31 04:08:12;;;;;;;7.38;5.60;;;;;;;;;;5067284;28;20442;-82
2022/05/31 04:10:42;;;;;;;9.95;6.20;;;;;;;;;;5063711;28;20061;-82
2022/05/31 04:13:08;;;;;;;6.82;5.82;;;;;;;;;;5054673;28;20247;-82
2022/05/31 04:15:34;;;;;;;7.30;5.78;;;;;;;;;;5067466;28;20040;-82
2022/05/31 04:18:00;;;;;;;6.70;6.00;;;;;;;;;;5067983;28;20106;-82
2022/05/31 04:20:27;;;;;;;7.32;5.55;;;;;;;;;;5069145;28;20405;-82
2022/05/31 04:23:57;;;;;;;7.40;5.75;;;;;;;;;;5066706;28;20071;-82
2022/05/31 04:25:39;;;;;;;6.85;5.78;;;;;;;;;;5060741;28;20103;-82
2022/05/31 04:28:05;;;;;;;6.47;5.88;;;;;;;;;;5055361;28;20068;-82
2022/05/31 04:30:31;;;;;;;7.50;6.50;;;;;;;;;;5068136;28;20110;-82
2022/05/31 04:32:57;;;;;;;8.48;6.70;;;;;;;;;;5056625;28;20053;-82
2022/05/31 04:35:23;;;;;;;6.38;5.72;;;;;;;;;;5047985;28;20123;-83
2022/05/31 04:37:49;;;;;;;8.75;6.00;;;;;;;;;;5054521;28;20509;-82
2022/05/31 04:40:15;;;;;;;7.07;6.40;;;;;;;;;;5061314;28;20052;-83
2022/05/31 04:42:42;;;;;;;7.03;6.03;;;;;;;;;;5033526;28;20052;-83
2022/05/31 04:45:08;;;;;;;7.00;6.30;;;;;;;;;;5069677;28;20048;-82
2022/05/31 04:47:35;;;;;;;6.55;5.85;;;;;;;;;;5070638;28;20345;-82
2022/05/31 04:50:01;;;;;;;7.72;6.20;;;;;;;;;;5072189;28;20052;-83
2022/05/31 04:52:27;;;;;;;7.00;6.30;;;;;;;;;;5070877;28;20408;-83
2022/05/31 04:54:54;;;;;;;7.53;6.57;;;;;;;;;;5067083;28;20112;-82
2022/05/31 04:57:20;;;;;;;6.85;6.15;;;;;;;;;;5066626;28;20051;-82
2022/05/31 04:59:46;;;;;;;7.32;6.55;;;;;;;;;;5071452;28;20123;-83
2022/05/31 05:02:12;;;;;;;7.28;6.30;;;;;;;;;;5069206;28;20056;-82
2022/05/31 05:04:39;;;;;;;7.00;6.30;;;;;;;;;;5053136;28;20064;-82
2022/05/31 05:07:05;;;;;;;9.73;7.13;;;;;;;;;;5066170;28;20080;-83
2022/05/31 05:09:31;;;;;;;8.02;6.80;;;;;;;;;;5066952;28;20071;-83
2022/05/31 05:11:57;;;;;;;7.10;6.40;;;;;;;;;;5065059;28;20049;-82
2022/05/31 05:14:23;;;;;;;7.38;6.30;;;;;;;;;;5058911;28;20041;-79
2022/05/31 05:16:49;;;;;;;8.30;6.32;;;;;;;;;;5062480;28;20087;-81
2022/05/31 05:19:16;;;;;;;8.43;6.35;;;;;;;;;;5070892;28;20056;-82
2022/05/31 05:21:43;;;;;;;9.80;6.70;;;;;;;;;;5062518;28;20524;-82
2022/05/31 05:24:09;;;;;;;6.45;5.85;;;;;;;;;;5068424;28;20045;-82
2022/05/31 05:26:35;;;;;;;7.03;6.30;;;;;;;;;;5062196;28;20123;-82
2022/05/31 05:31:46;;;;;;;9.07;6.93;;;;;;;;;;5070748;28;20048;-82
2022/05/31 05:34:13;;;;;;;8.23;6.20;;;;;;;;;;5054819;28;20064;-82
2022/05/31 05:36:39;;;;;;;8.30;6.93;;;;;;;;;;5060186;28;20063;-82
2022/05/31 05:39:10;;;;;;;7.97;6.97;;;;;;;;;;5065152;28;20044;-82
2022/05/31 05:41:36;;;;;;;7.45;6.65;;;;;;;;;;5060055;28;20044;-82
2022/05/31 05:44:02;;;;;;;9.35;6.75;;;;;;;;;;5070388;28;20044;-82
2022/05/31 05:46:29;;;;;;;7.75;6.82;;;;;;;;;;5067219;28;20131;-82
2022/05/31 05:48:55;;;;;;;8.13;6.53;;;;;;;;;;5049864;28;20052;-83
2022/05/31 05:51:23;;;;;;;7.50;6.63;;;;;;;;;;5059267;28;20049;-83
2022/05/31 05:53:49;;;;;;;7.70;6.90;;;;;;;;;;5066154;28;20397;-95
2022/05/31 05:56:16;;;;;;;7.72;6.40;;;;;;;;;;5057041;28;20051;-83
2022/05/31 05:58:42;;;;;;;8.00;6.40;;;;;;;;;;5071362;28;20048;-82
2022/05/31 06:01:27;;;;;;;7.93;6.32;;;;;;;;;;5068399;28;20418;-83
2022/05/31 06:03:56;;;;;;;8.10;6.47;;;;;;;;;;5057759;28;20053;-83
2022/05/31 06:06:22;;;;;;;6.80;6.10;;;;;;;;;;5050475;28;20045;-83
2022/05/31 06:08:54;;;;;;;7.10;5.90;;;;;;;;;;5049046;28;20250;-82
2022/05/31 06:11:20;;;;;;;9.20;5.82;;;;;;;;;;5058813;28;20039;-83
2022/05/31 06:13:55;;;;;;;7.28;6.15;;;;;;;;;;5069590;28;20053;-83
2022/05/31 06:16:23;;;;;;;7.35;6.07;;;;;;;;;;5057780;28;20080;-83
2022/05/31 06:18:51;;;;;;;7.35;6.18;;;;;;;;;;5069630;28;20051;-82
2022/05/31 06:21:18;;;;;;;6.60;5.90;;;;;;;;;;5068762;28;20076;-83
2022/05/31 06:23:44;;;;;;;7.75;5.85;;;;;;;;;;5061134;28;20037;-83
2022/05/31 06:26:10;;;;;;;7.22;5.30;;;;;;;;;;5056766;28;20752;-83
2022/05/31 06:28:36;;;;;;;7.32;5.78;;;;;;;;;;5069372;28;20048;-83
2022/05/31 06:31:02;;;;;;;7.38;5.80;;;;;;;;;;5069772;28;20028;-83
2022/05/31 06:33:28;;;;;;;10.15;5.70;;;;;;;;;;5061838;28;20041;-83
2022/05/31 06:35:54;;;;;;;7.50;5.68;;;;;;;;;;5054086;28;20029;-83
2022/05/31 06:38:20;;;;;;;6.35;5.32;;;;;;;;;;5062462;28;20041;-82
2022/05/31 06:40:46;;;;;;;6.72;6.00;;;;;;;;;;5053134;28;20047;-82
2022/05/31 06:43:12;;;;;;;7.00;5.72;;;;;;;;;;5068305;28;20041;-83
2022/05/31 06:45:38;;;;;;;6.53;5.65;;;;;;;;;;5067125;28;20045;-82
2022/05/31 06:48:04;;;;;;;7.18;5.00;;;;;;;;;;5068955;28;20374;-83
2022/05/31 06:50:31;;;;;;;7.10;5.82;;;;;;;;;;5068727;28;20048;-82
2022/05/31 06:58:27;;;;;;;6.22;5.63;;;;;;;;;;5070620;28;20048;-82
2022/05/31 07:00:54;;;;;;;5.88;5.22;;;;;;;;;;5021346;28;20457;-82
2022/05/31 07:03:20;;;;;;;11.00;6.35;;;;;;;;;;4954516;28;20074;-81
2022/05/31 07:05:46;;;;;;;7.18;5.85;;;;;;;;;;4947207;28;20135;-81
2022/05/31 07:08:12;;;;;;;6.70;5.50;;;;;;;;;;4957228;28;20518;-82
2022/05/31 07:10:39;;;;;;;8.15;6.30;;;;;;;;;;4968576;28;20054;-81
2022/05/31 07:13:05;;;;;;;9.20;6.25;;;;;;;;;;4958053;28;20058;-82
2022/05/31 07:15:31;;;;;;;6.78;5.95;;;;;;;;;;4969036;28;20544;-82
2022/05/31 07:17:57;;;;;;;6.88;5.68;;;;;;;;;;4966454;28;20072;-81
2022/05/31 07:20:23;;;;;;;9.15;6.28;;;;;;;;;;4966923;28;20070;-81
2022/05/31 07:22:51;;;;;;;8.57;6.10;;;;;;;;;;4953512;28;20051;-82
2022/05/31 07:25:17;;;;;;;7.45;5.95;;;;;;;;;;4946085;28;20063;-83
2022/05/31 07:27:43;;;;;;;7.13;5.97;;;;;;;;;;4967017;28;20381;-83
2022/05/31 07:30:10;;;;;;;7.25;5.70;;;;;;;;;;4979568;28;20257;-83
2022/05/31 07:32:36;;;;;;;7.95;6.15;;;;;;;;;;4945974;28;20105;-83
2022/05/31 07:35:02;;;;;;;7.95;6.30;;;;;;;;;;4946881;28;20699;-84
2022/05/31 07:37:28;;;;;;;7.15;6.20;;;;;;;;;;5015843;28;20117;-84
2022/05/31 07:39:54;;;;;;;6.55;5.95;;;;;;;;;;5035287;28;20129;-83
2022/05/31 07:42:20;;;;;;;6.93;6.03;;;;;;;;;;5042015;28;20080;-84
2022/05/31 07:44:46;;;;;;;6.78;6.05;;;;;;;;;;5032458;28;20041;-84
2022/05/31 07:47:12;;;;;;;7.68;5.90;;;;;;;;;;5041879;28;20038;-86
2022/05/31 07:49:38;;;;;;;7.85;6.35;;;;;;;;;;5046031;28;20402;-86
2022/05/31 07:52:08;;;;;;;7.32;6.20;;;;;;;;;;5038818;28;20077;-86
2022/05/31 07:54:34;;;;;;;7.05;6.30;;;;;;;;;;5034218;28;20045;-87
2022/05/31 07:57:00;;;;;;;6.47;5.82;;;;;;;;;;5043332;28;20084;-86
2022/05/31 07:59:27;;;;;;;7.15;5.78;;;;;;;;;;5053761;28;20076;-87
2022/05/31 08:01:53;;;;;;;8.43;5.72;;;;;;;;;;5044887;28;20370;-90
2022/05/31 08:04:19;;;;;;;6.78;6.00;;;;;;;;;;5037186;28;20045;-83
2022/05/31 08:06:45;;;;;;;7.13;5.50;;;;;;;;;;5048620;28;20040;-83
2022/05/31 08:09:11;;;;;;;8.10;5.97;;;;;;;;;;5046232;28;20139;-83
2022/05/31 08:11:37;;;;;;;8.98;5.10;;;;;;;;;;5041439;28;20045;-83
2022/05/31 08:14:03;;;;;;;5.15;4.57;;;;;;;;;;5048295;28;20045;-83
2022/05/31 08:16:29;;;;;;;6.43;5.10;;;;;;;;;;5043401;28;20493;-82
2022/05/31 08:18:56;;;;;;;7.57;4.85;;;;;;;;;;5059196;28;20044;-83
2022/05/31 08:21:27;;;;;;;5.40;4.90;;;;;;;;;;5036887;28;20575;-83
2022/05/31 08:23:57;;;;;;;9.85;5.22;;;;;;;;;;5041166;28;20044;-83
2022/05/31 08:26:23;;;;;;;6.97;5.30;;;;;;;;;;5034286;28;20049;-83
2022/05/31 08:28:49;;;;;;;5.90;4.45;;;;;;;;;;5045270;28;20051;-83
2022/05/31 08:31:16;;;;;;;7.50;4.88;;;;;;;;;;5059491;28;20060;-83
2022/05/31 08:33:42;;;;;;;7.47;5.05;;;;;;;;;;5061742;28;20053;-83
2022/05/31 08:36:09;;;;;;;7.70;5.37;;;;;;;;;;5061475;28;20040;-83
2022/05/31 08:38:35;;;;;;;8.48;5.00;;;;;;;;;;5046204;28;20053;-83
2022/05/31 08:41:08;;;;;;;5.25;4.60;;;;;;;;;;5049781;28;20041;-83
2022/05/31 08:43:46;;;;;;;5.32;4.78;;;;;;;;;;5042175;28;20037;-83
2022/05/31 08:46:32;;;;;;;7.07;4.90;;;;;;;;;;5050681;28;20652;-89
2022/05/31 08:48:58;;;;;;;;;;;;;;;;;;5031944;28;20045;-83
2022/05/31 08:51:55;;;;;;;6.93;5.00;;;;;;;;;;5034744;28;20266;-87
2022/05/31 08:57:08;;;;;;;5.85;4.93;;;;;;;;;;5072417;28;20003;-83
2022/05/31 08:59:49;;;;;;;5.53;5.00;;;;;;;;;;5064655;28;20438;-83
2022/05/31 09:02:29;;;;;;;7.00;5.03;;;;;;;;;;5055541;28;20085;-93
2022/05/31 09:05:03;;;;;;;7.45;5.13;;;;;;;;;;5072706;28;20087;-84
2022/05/31 09:07:35;;;;;;;7.43;5.47;;;;;;;;;;5068170;28;20127;-82
2022/05/31 09:10:13;;;;;;;7.10;5.40;;;;;;;;;;5061953;28;20051;-83
2022/05/31 09:12:42;;;;;;;6.43;5.05;;;;;;;;;;5052600;28;20053;-82
2022/05/31 09:15:36;;;;;;;7.30;5.40;;;;;;;;;;5051867;28;20119;-83
2022/05/31 09:18:17;;;;;;;6.55;4.88;;;;;;;;;;5049569;28;20059;-83
2022/05/31 09:20:46;;;;;;;6.40;5.20;;;;;;;;;;5056435;28;20520;-83
2022/05/31 09:23:15;;;;;;;7.35;5.53;;;;;;;;;;5050881;28;20080;-83
2022/05/31 09:25:42;;;;;;;7.40;5.18;;;;;;;;;;5051155;28;20045;-83
2022/05/31 09:28:27;;;;;;;5.88;5.07;;;;;;;;;;5050633;28;20355;-83
2022/05/31 09:30:53;;;;;;;9.38;5.53;;;;;;;;;;5066248;28;20397;-83
2022/05/31 09:33:22;;;;;;;6.60;5.53;;;;;;;;;;5052042;28;20067;-83
2022/05/31 09:35:55;;;;;;;8.63;5.80;;;;;;;;;;5052273;28;20082;-83
2022/05/31 09:38:27;;;;;;;7.97;5.97;;;;;;;;;;5064891;28;20075;-83
2022/05/31 09:41:05;;;;;;;9.40;5.95;;;;;;;;;;5071147;28;20428;-83
2022/05/31 09:43:48;;;;;;;8.45;5.90;;;;;;;;;;5071285;28;20094;-83
2022/05/31 09:46:24;;;;;;;8.60;6.25;;;;;;;;;;5070151;28;20097;-83
2022/05/31 09:48:51;;;;;;;8.07;5.95;;;;;;;;;;5071614;28;20049;-82
2022/05/31 09:51:31;;;;;;;8.00;5.70;;;;;;;;;;5067550;28;20394;-83
2022/05/31 09:59:29;;;;;;;8.88;6.50;;;;;;;;;;5071077;28;20378;-84
2022/05/31 10:01:56;;;;;;;8.77;6.38;;;;;;;;;;5067662;28;20052;-84
2022/05/31 10:04:27;;;;;;;8.18;6.47;;;;;;;;;;5068587;28;20047;-84
2022/05/31 10:07:04;;;;;;;9.60;7.43;;;;;;;;;;5059847;28;20060;-83
2022/05/31 10:09:34;;;;;;;10.30;6.80;;;;;;;;;;5064968;28;20052;-85
2022/05/31 10:12:04;;;;;;;10.50;6.90;;;;;;;;;;5049411;28;20045;-85
2022/05/31 10:14:33;;;;;;;8.82;7.00;;;;;;;;;;5063447;28;20044;-90
2022/05/31 10:17:14;;;;;;;9.32;6.57;;;;;;;;;;5033230;28;20159;-85
2022/05/31 10:19:40;;;;;;;8.73;6.93;;;;;;;;;;5050664;28;20060;-86
2022/05/31 10:22:17;;;;;;;7.22;6.53;;;;;;;;;;5050082;28;20044;-87
2022/05/31 10:24:43;;;;;;;10.23;7.13;;;;;;;;;;5053792;28;20059;-85
2022/05/31 10:27:22;;;;;;;7.13;6.30;;;;;;;;;;5066514;28;20076;-85
2022/05/31 10:29:51;;;;;;;8.35;7.13;;;;;;;;;;5064204;28;20051;-83
2022/05/31 10:32:34;;;;;;;8.57;6.93;;;;;;;;;;5047855;28;20110;-84
2022/05/31 10:35:07;;;;;;;9.30;7.18;;;;;;;;;;5053729;28;20080;-83
2022/05/31 10:37:33;;;;;;;10.90;7.15;;;;;;;;;;5070596;28;20051;-83
2022/05/31 10:40:10;;;;;;;9.40;7.55;;;;;;;;;;5070121;28;20044;-83
2022/05/31 10:42:39;;;;;;;10.63;6.93;;;;;;;;;;5054910;28;20047;-83
2022/05/31 10:45:07;;;;;;;8.30;7.45;;;;;;;;;;5047658;28;20048;-83
2022/05/31 10:47:33;;;;;;;8.18;7.35;;;;;;;;;;5032181;28;20418;-83
2022/05/31 10:50:00;;;;;;;8.30;7.00;;;;;;;;;;5051637;28;20060;-87
2022/05/31 10:52:32;;;;;;;9.35;7.47;;;;;;;;;;5066738;28;20049;-84
2022/05/31 10:54:58;;;;;;;9.10;7.03;;;;;;;;;;5056020;28;20044;-87
2022/05/31 10:57:39;;;;;;;8.20;7.25;;;;;;;;;;5063224;28;20493;-83
2022/05/31 11:00:05;;;;;;;9.05;7.45;;;;;;;;;;5059935;28;20127;-85
2022/05/31 11:02:34;;;;;;;10.10;7.53;;;;;;;;;;5049479;28;20546;-83
2022/05/31 11:05:03;;;;;;;9.82;8.27;;;;;;;;;;5049776;28;20055;-83
2022/05/31 11:07:34;;;;;;;8.73;7.43;;;;;;;;;;5045111;28;20474;-83
2022/05/31 11:13:05;;;;;;;8.32;7.53;;;;;;;;;;5035198;28;20060;-84
2022/05/31 11:15:34;;;;;;;8.77;7.05;;;;;;;;;;5043417;28;20045;-84
2022/05/31 11:18:00;;;;;;;8.85;7.45;;;;;;;;;;5051983;28;20040;-84
2022/05/31 11:20:48;;;;;;;8.25;7.40;;;;;;;;;;5051430;28;20041;-84
2022/05/31 11:23:37;;;;;;;9.85;8.40;;;;;;;;;;5029903;28;20468;-84
2022/05/31 11:26:05;;;;;;;9.05;6.97;;;;;;;;;;5022973;28;20448;-84
2022/05/31 11:28:51;;;;;;;10.85;8.35;;;;;;;;;;5045411;28;20115;-84
2022/05/31 11:31:27;;;;;;;9.60;8.02;;;;;;;;;;5043755;28;20387;-84
2022/05/31 11:34:06;;;;;;;8.88;7.38;;;;;;;;;;5031233;28;20045;-84
2022/05/31 11:36:38;;;;;;;11.02;8.10;;;;;;;;;;5046720;28;20052;-84
2022/05/31 11:39:12;;;;;;;10.88;8.05;;;;;;;;;;5049003;28;20456;-84
2022/05/31 11:41:44;;;;;;;9.57;7.63;;;;;;;;;;5049317;28;20405;-84
2022/05/31 11:44:13;;;;;;;9.65;7.85;;;;;;;;;;5063817;28;20068;-84
2022/05/31 11:46:43;;;;;;;9.45;7.50;;;;;;;;;;5049206;28;20044;-84
2022/05/31 11:49:14;;;;;;;9.93;7.68;;;;;;;;;;5048538;28;20045;-84
2022/05/31 11:51:53;;;;;;;10.50;7.57;;;;;;;;;;5048106;28;20057;-84
2022/05/31 11:54:22;;;;;;;8.15;6.72;;;;;;;;;;5050200;28;20052;-84
2022/05/31 11:57:04;;;;;;;9.40;6.97;;;;;;;;;;5052567;28;20060;-84
2022/05/31 11:59:37;;;;;;;8.55;6.90;;;;;;;;;;5071727;28;20064;-84
2022/05/31 12:02:16;;;;;;;10.25;7.20;;;;;;;;;;5053653;28;20051;-84
2022/05/31 12:04:49;;;;;;;8.48;6.70;;;;;;;;;;5052697;28;20056;-84
2022/05/31 12:07:25;;;;;;;10.68;8.05;;;;;;;;;;5067068;28;20059;-84
2022/05/31 12:09:56;;;;;;;9.20;6.97;;;;;;;;;;5071787;28;20045;-84
2022/05/31 12:12:32;;;;;;;9.50;6.97;;;;;;;;;;5052389;28;20464;-83
2022/05/31 12:15:01;;;;;;;8.45;7.20;;;;;;;;;;5051413;28;20048;-84
2022/05/31 12:17:40;;;;;;;11.57;8.23;;;;;;;;;;5053286;28;20512;-84
2022/05/31 12:20:09;;;;;;;8.40;6.80;;;;;;;;;;5051660;28;20055;-84
2022/05/31 12:22:37;;;;;;;9.20;7.88;;;;;;;;;;5071928;28;20040;-84
2022/05/31 12:25:07;;;;;;;9.43;7.53;;;;;;;;;;5072240;28;20058;-85
2022/05/31 12:27:48;;;;;;;10.10;7.88;;;;;;;;;;5071933;28;20044;-84
2022/05/31 12:30:19;;;;;;;9.88;7.97;;;;;;;;;;5063929;28;20122;-84
2022/05/31 12:32:46;;;;;;;8.85;7.72;;;;;;;;;;5052161;28;20089;-84
2022/05/31 12:35:31;;;;;;;10.02;8.45;;;;;;;;;;5052853;28;20049;-85
2022/05/31 12:38:03;;;;;;;9.55;8.32;;;;;;;;;;5052394;28;20124;-84
2022/05/31 12:40:36;;;;;;;9.32;8.35;;;;;;;;;;5058826;28;20106;-89
2022/05/31 12:43:07;;;;;;;11.60;8.30;;;;;;;;;;5060260;28;20456;-83
2022/05/31 12:45:36;;;;;;;13.75;9.30;;;;;;;;;;5049938;28;20099;-83
2022/05/31 12:48:11;;;;;;;12.20;9.90;;;;;;;;;;5049679;28;20357;-83
2022/05/31 12:50:55;;;;;;;13.07;10.13;;;;;;;;;;5049427;28;20052;-84
2022/05/31 12:53:40;;;;;;;13.95;11.32;;;;;;;;;;5050285;28;20558;-84
2022/05/31 12:56:07;;;;;;;12.57;10.65;;;;;;;;;;5052163;28;20055;-84
2022/05/31 12:58:39;;;;;;;14.82;11.60;;;;;;;;;;5052112;28;20087;-84
2022/05/31 13:01:11;;;;;;;12.82;11.35;;;;;;;;;;5052123;28;20055;-83
2022/05/31 13:03:40;;;;;;;16.90;10.80;;;;;;;;;;5050689;28;20113;-83
2022/05/31 13:06:25;;;;;;;12.45;11.15;;;;;;;;;;5046912;28;20048;-84
2022/05/31 13:08:52;;;;;;;14.15;12.30;;;;;;;;;;5050716;28;20120;-84
2022/05/31 13:20:31;;;;;;;11.32;8.90;;;;;;;;;;5052899;28;20088;-84
2022/05/31 13:23:01;;;;;;;14.50;9.10;;;;;;;;;;5053738;28;20053;-84
2022/05/31 13:25:32;;;;;;;9.73;8.18;;;;;;;;;;5051568;28;20098;-92
2022/05/31 13:27:59;;;;;;;10.50;7.95;;;;;;;;;;5050013;28;20045;-84
2022/05/31 13:30:28;;;;;;;10.60;8.20;;;;;;;;;;5049429;28;20079;-83
2022/05/31 13:32:54;;;;;;;9.02;7.70;;;;;;;;;;5050569;28;20048;-83
2022/05/31 13:35:24;;;;;;;9.15;7.78;;;;;;;;;;5051061;28;20127;-84
2022/05/31 13:37:53;;;;;;;11.48;8.30;;;;;;;;;;5050537;28;20479;-83
2022/05/31 13:40:25;;;;;;;9.93;8.15;;;;;;;;;;5051221;28;20080;-84
2022/05/31 13:42:54;;;;;;;10.07;7.15;;;;;;;;;;5067150;28;20063;-84
2022/05/31 13:45:23;;;;;;;8.68;7.00;;;;;;;;;;5050534;28;20044;-84
2022/05/31 13:47:51;;;;;;;8.65;7.22;;;;;;;;;;5050674;28;20036;-83
2022/05/31 13:50:19;;;;;;;9.73;6.93;;;;;;;;;;5051318;28;20049;-84
2022/05/31 13:52:49;;;;;;;9.65;7.18;;;;;;;;;;5051903;28;20482;-83
2022/05/31 13:55:18;;;;;;;8.25;6.97;;;;;;;;;;5042758;28;20118;-83
2022/05/31 13:57:57;;;;;;;10.25;7.53;;;;;;;;;;5049900;28;20056;-83
2022/05/31 14:00:47;;;;;;;9.80;8.00;;;;;;;;;;5058813;28;20056;-83
2022/05/31 14:03:19;;;;;;;9.32;7.80;;;;;;;;;;5038796;28;20060;-85
2022/05/31 14:05:51;;;;;;;11.68;8.65;;;;;;;;;;5044066;28;20448;-83
2022/05/31 14:08:25;;;;;;;13.35;9.27;;;;;;;;;;5043497;28;20045;-82
2022/05/31 14:10:51;;;;;;;12.63;9.95;;;;;;;;;;5049469;28;20405;-83
2022/05/31 14:13:20;;;;;;;11.00;9.25;;;;;;;;;;5044871;28;20059;-83
2022/05/31 14:15:46;;;;;;;13.52;10.85;;;;;;;;;;5049096;28;20037;-83
2022/05/31 14:18:14;;;;;;;15.13;12.18;;;;;;;;;;5053319;28;20044;-83
2022/05/31 14:20:42;;;;;;;17.38;11.88;;;;;;;;;;5050274;28;20067;-82
2022/05/31 14:23:10;;;;;;;20.33;14.63;;;;;;;;;;5040746;28;20508;-85
2022/05/31 14:25:36;;;;;;;17.67;14.20;;;;;;;;;;5041060;28;20211;-85
2022/05/31 14:28:02;;;;;;;18.05;13.65;;;;;;;;;;5029767;28;20045;-83
2022/05/31 14:30:31;;;;;;;13.32;10.45;;;;;;;;;;5046525;28;20049;-84
2022/05/31 14:33:01;;;;;;;16.80;10.48;;;;;;;;;;5058012;28;20044;-84
2022/05/31 14:35:30;;;;;;;10.43;9.32;;;;;;;;;;5045617;28;20063;-83
2022/05/31 14:37:56;;;;;;;10.52;9.35;;;;;;;;;;5033545;28;20128;-82
2022/05/31 14:40:31;;;;;;;12.65;11.02;;;;;;;;;;5050349;28;20079;-82
2022/05/31 14:43:13;;;;;;;14.10;10.75;;;;;;;;;;5049779;28;20072;-82
2022/05/31 14:45:47;;;;;;;12.35;11.00;;;;;;;;;;5049276;28;20056;-82
2022/05/31 14:48:32;;;;;;;14.63;12.07;;;;;;;;;;5062760;28;20451;-82
2022/05/31 14:51:00;;;;;;;12.05;10.00;;;;;;;;;;5049585;28;20049;-82
2022/05/31 14:53:34;;;;;;;13.57;10.55;;;;;;;;;;5039246;28;20041;-82
2022/05/31 14:56:00;;;;;;;14.20;11.60;;;;;;;;;;5050222;28;20072;-85
2022/05/31 14:58:40;;;;;;;13.73;12.32;;;;;;;;;;5048317;28;20622;-82
2022/05/31 15:01:09;;;;;;;15.55;12.65;;;;;;;;;;5049493;28;20158;-82
2022/05/31 15:03:37;;;;;;;14.13;12.18;;;;;;;;;;5039125;28;20076;-83
2022/05/31 15:06:06;;;;;;;16.17;13.25;;;;;;;;;;5036702;28;20055;-83
2022/05/31 15:08:34;;;;;;;16.77;13.23;;;;;;;;;;5050091;28;20036;-83
2022/05/31 15:19:23;;;;;;;15.85;14.18;;;;;;;;;;5055807;28;20056;-83
2022/05/31 15:21:49;;;;;;;16.67;14.70;;;;;;;;;;5056614;28;20040;-83
2022/05/31 15:24:25;;;;;;;16.27;14.32;;;;;;;;;;5052121;28;20483;-87
2022/05/31 15:26:51;;;;;;;17.60;15.88;;;;;;;;;;5054429;28;20053;-95
2022/05/31 15:29:19;;;;;;;16.42;14.73;;;;;;;;;;5069723;28;20044;-83
2022/05/31 15:31:45;;;;;;;18.13;16.20;;;;;;;;;;5055825;28;20059;-84